sensor_id;sensor_type;location;lat;lon;timestamp;pressure;altitude;pressure_sealevel;temperature;humidity
65659;BME280;60181;53.258;6.932;2022-12-07T00:02:12;101674.40;;;14.34;67.29
65659;BME280;60181;53.258;6.932;2022-12-07T00:06:41;101672.12;;;14.34;67.42
65659;BME280;60181;53.258;6.932;2022-12-07T00:11:09;101671.30;;;14.35;67.72
65659;BME280;60181;53.258;6.932;2022-12-07T00:15:36;101669.40;;;14.35;67.83
65659;BME280;60181;53.258;6.932;2022-12-07T00:20:05;101668.19;;;14.35;68.12
65659;BME280;60181;53.258;6.932;2022-12-07T00:24:32;101666.43;;;14.35;67.74
65659;BME280;60181;53.258;6.932;2022-12-07T00:29:02;101664.95;;;14.35;67.80
65659;BME280;60181;53.258;6.932;2022-12-07T00:33:28;101665.89;;;14.35;67.60
65659;BME280;60181;53.258;6.932;2022-12-07T00:37:56;101666.77;;;14.35;67.55
65659;BME280;60181;53.258;6.932;2022-12-07T00:42:24;101665.91;;;14.34;67.51
65659;BME280;60181;53.258;6.932;2022-12-07T00:46:52;101664.67;;;14.33;67.46
65659;BME280;60181;53.258;6.932;2022-12-07T00:51:21;101665.55;;;14.33;68.38
65659;BME280;60181;53.258;6.932;2022-12-07T00:55:48;101663.90;;;14.32;67.50
65659;BME280;60181;53.258;6.932;2022-12-07T01:00:16;101661.43;;;14.32;68.05
65659;BME280;60181;53.258;6.932;2022-12-07T01:04:44;101658.51;;;14.31;68.68
65659;BME280;60181;53.258;6.932;2022-12-07T01:09:12;101655.03;;;14.30;69.83
65659;BME280;60181;53.258;6.932;2022-12-07T01:13:40;101653.34;;;14.29;70.00
65659;BME280;60181;53.258;6.932;2022-12-07T01:18:08;101652.91;;;14.28;70.06
65659;BME280;60181;53.258;6.932;2022-12-07T01:22:39;101651.47;;;14.27;68.03
65659;BME280;60181;53.258;6.932;2022-12-07T01:27:04;101649.75;;;14.27;67.67
65659;BME280;60181;53.258;6.932;2022-12-07T01:31:32;101647.44;;;14.27;67.73
65659;BME280;60181;53.258;6.932;2022-12-07T01:36:07;101643.73;;;14.27;67.61
65659;BME280;60181;53.258;6.932;2022-12-07T01:40:28;101640.52;;;14.26;67.61
65659;BME280;60181;53.258;6.932;2022-12-07T01:45:25;101639.03;;;14.26;67.75
65659;BME280;60181;53.258;6.932;2022-12-07T01:49:37;101637.60;;;14.26;67.67
65659;BME280;60181;53.258;6.932;2022-12-07T01:53:52;101636.94;;;14.26;67.78
65659;BME280;60181;53.258;6.932;2022-12-07T01:58:20;101639.31;;;14.28;68.60
65659;BME280;60181;53.258;6.932;2022-12-07T02:02:51;101644.31;;;14.30;68.30
65659;BME280;60181;53.258;6.932;2022-12-07T02:07:16;101648.21;;;14.32;68.25
65659;BME280;60181;53.258;6.932;2022-12-07T02:11:44;101653.05;;;14.33;68.32
65659;BME280;60181;53.258;6.932;2022-12-07T02:20:47;101656.55;;;14.35;68.46
65659;BME280;60181;53.258;6.932;2022-12-07T02:25:09;101656.82;;;14.35;68.28
65659;BME280;60181;53.258;6.932;2022-12-07T02:29:38;101654.07;;;14.35;68.34
65659;BME280;60181;53.258;6.932;2022-12-07T02:34:05;101650.83;;;14.34;68.29
65659;BME280;60181;53.258;6.932;2022-12-07T02:38:36;101649.10;;;14.33;68.31
65659;BME280;60181;53.258;6.932;2022-12-07T02:43:04;101647.34;;;14.32;68.29
65659;BME280;60181;53.258;6.932;2022-12-07T02:47:28;101644.17;;;14.31;68.26
65659;BME280;60181;53.258;6.932;2022-12-07T02:51:56;101640.44;;;14.31;68.21
65659;BME280;60181;53.258;6.932;2022-12-07T02:56:39;101639.70;;;14.30;68.21
65659;BME280;60181;53.258;6.932;2022-12-07T03:00:55;101642.14;;;14.29;68.24
65659;BME280;60181;53.258;6.932;2022-12-07T03:09:51;101639.36;;;14.27;68.57
65659;BME280;60181;53.258;6.932;2022-12-07T03:14:17;101634.75;;;14.27;67.72
65659;BME280;60181;53.258;6.932;2022-12-07T03:18:57;101630.22;;;14.27;68.04
65659;BME280;60181;53.258;6.932;2022-12-07T03:23:12;101626.95;;;14.28;68.11
65659;BME280;60181;53.258;6.932;2022-12-07T03:27:49;101623.32;;;14.28;68.36
65659;BME280;60181;53.258;6.932;2022-12-07T03:32:14;101619.86;;;14.28;68.38
65659;BME280;60181;53.258;6.932;2022-12-07T03:36:47;101616.96;;;14.27;68.47
65659;BME280;60181;53.258;6.932;2022-12-07T03:41:05;101615.52;;;14.26;67.50
65659;BME280;60181;53.258;6.932;2022-12-07T03:45:51;101613.01;;;14.22;67.44
65659;BME280;60181;53.258;6.932;2022-12-07T03:54:29;101611.46;;;14.13;67.17
65659;BME280;60181;53.258;6.932;2022-12-07T03:58:56;101609.16;;;14.09;67.21
65659;BME280;60181;53.258;6.932;2022-12-07T04:03:24;101605.82;;;14.04;67.18
65659;BME280;60181;53.258;6.932;2022-12-07T04:07:52;101603.09;;;14.01;67.01
65659;BME280;60181;53.258;6.932;2022-12-07T04:12:20;101600.81;;;13.99;66.71
65659;BME280;60181;53.258;6.932;2022-12-07T04:16:49;101598.28;;;13.97;66.71
65659;BME280;60181;53.258;6.932;2022-12-07T04:21:16;101596.58;;;13.95;66.72
65659;BME280;60181;53.258;6.932;2022-12-07T04:25:44;101595.64;;;13.93;66.61
65659;BME280;60181;53.258;6.932;2022-12-07T04:30:12;101594.70;;;13.92;66.58
65659;BME280;60181;53.258;6.932;2022-12-07T04:34:40;101597.06;;;13.91;66.65
65659;BME280;60181;53.258;6.932;2022-12-07T04:39:08;101600.13;;;13.89;66.48
65659;BME280;60181;53.258;6.932;2022-12-07T04:43:36;101603.49;;;13.88;66.46
65659;BME280;60181;53.258;6.932;2022-12-07T04:48:04;101606.09;;;13.86;66.38
65659;BME280;60181;53.258;6.932;2022-12-07T04:52:32;101607.70;;;13.85;66.38
65659;BME280;60181;53.258;6.932;2022-12-07T04:57:00;101607.42;;;13.84;66.26
65659;BME280;60181;53.258;6.932;2022-12-07T05:01:28;101606.62;;;13.83;66.34
65659;BME280;60181;53.258;6.932;2022-12-07T05:05:56;101603.71;;;13.81;66.30
65659;BME280;60181;53.258;6.932;2022-12-07T05:10:24;101600.80;;;13.81;66.14
65659;BME280;60181;53.258;6.932;2022-12-07T05:14:52;101597.13;;;13.81;66.49
65659;BME280;60181;53.258;6.932;2022-12-07T05:19:20;101594.55;;;13.83;66.41
65659;BME280;60181;53.258;6.932;2022-12-07T05:23:48;101592.63;;;13.86;66.39
65659;BME280;60181;53.258;6.932;2022-12-07T05:28:16;101590.63;;;13.87;66.51
65659;BME280;60181;53.258;6.932;2022-12-07T05:32:44;101584.08;;;13.89;66.54
65659;BME280;60181;53.258;6.932;2022-12-07T05:37:12;101579.58;;;13.90;66.59
65659;BME280;60181;53.258;6.932;2022-12-07T05:41:40;101576.81;;;13.91;66.65
65659;BME280;60181;53.258;6.932;2022-12-07T05:46:08;101574.45;;;13.92;66.72
65659;BME280;60181;53.258;6.932;2022-12-07T05:50:35;101573.81;;;13.93;66.82
65659;BME280;60181;53.258;6.932;2022-12-07T05:55:04;101573.33;;;13.94;66.82
65659;BME280;60181;53.258;6.932;2022-12-07T05:59:31;101572.36;;;13.94;66.82
65659;BME280;60181;53.258;6.932;2022-12-07T06:03:59;101570.97;;;13.94;66.81
65659;BME280;60181;53.258;6.932;2022-12-07T06:08:27;101571.12;;;13.94;66.91
65659;BME280;60181;53.258;6.932;2022-12-07T06:12:55;101570.87;;;13.94;66.96
65659;BME280;60181;53.258;6.932;2022-12-07T06:17:23;101571.21;;;13.94;66.89
65659;BME280;60181;53.258;6.932;2022-12-07T06:21:52;101572.80;;;13.95;66.93
65659;BME280;60181;53.258;6.932;2022-12-07T06:26:19;101577.42;;;13.96;66.95
65659;BME280;60181;53.258;6.932;2022-12-07T06:30:47;101580.80;;;13.96;67.19
65659;BME280;60181;53.258;6.932;2022-12-07T06:35:16;101581.95;;;13.96;67.25
65659;BME280;60181;53.258;6.932;2022-12-07T06:39:43;101581.28;;;13.96;67.24
65659;BME280;60181;53.258;6.932;2022-12-07T06:44:11;101581.37;;;13.96;67.15
65659;BME280;60181;53.258;6.932;2022-12-07T06:48:40;101582.56;;;13.96;67.33
65659;BME280;60181;53.258;6.932;2022-12-07T06:53:08;101582.72;;;13.97;67.22
65659;BME280;60181;53.258;6.932;2022-12-07T06:57:35;101583.29;;;13.97;67.19
65659;BME280;60181;53.258;6.932;2022-12-07T07:02:03;101583.26;;;13.96;67.08
65659;BME280;60181;53.258;6.932;2022-12-07T07:06:31;101582.58;;;13.95;67.04
65659;BME280;60181;53.258;6.932;2022-12-07T07:11:00;101582.62;;;13.93;66.93
65659;BME280;60181;53.258;6.932;2022-12-07T07:15:27;101582.90;;;13.92;66.85
65659;BME280;60181;53.258;6.932;2022-12-07T07:19:55;101583.45;;;13.90;66.82
65659;BME280;60181;53.258;6.932;2022-12-07T07:24:23;101585.23;;;13.89;66.76
65659;BME280;60181;53.258;6.932;2022-12-07T07:28:51;101586.02;;;13.88;66.71
65659;BME280;60181;53.258;6.932;2022-12-07T07:33:19;101586.99;;;13.87;66.65
65659;BME280;60181;53.258;6.932;2022-12-07T07:37:47;101588.59;;;13.86;66.67
65659;BME280;60181;53.258;6.932;2022-12-07T07:42:15;101590.30;;;13.85;66.63
65659;BME280;60181;53.258;6.932;2022-12-07T07:46:43;101592.02;;;13.84;66.61
65659;BME280;60181;53.258;6.932;2022-12-07T07:51:11;101591.58;;;13.83;66.58
65659;BME280;60181;53.258;6.932;2022-12-07T07:55:39;101591.47;;;13.83;66.56
65659;BME280;60181;53.258;6.932;2022-12-07T08:00:09;101591.64;;;13.82;66.56
65659;BME280;60181;53.258;6.932;2022-12-07T08:04:35;101592.55;;;13.82;66.53
65659;BME280;60181;53.258;6.932;2022-12-07T08:09:03;101594.60;;;13.82;66.49
65659;BME280;60181;53.258;6.932;2022-12-07T08:13:31;101594.51;;;13.82;66.52
65659;BME280;60181;53.258;6.932;2022-12-07T08:17:59;101596.50;;;13.82;66.49
65659;BME280;60181;53.258;6.932;2022-12-07T08:22:27;101596.41;;;13.82;66.52
65659;BME280;60181;53.258;6.932;2022-12-07T08:26:55;101596.41;;;13.82;66.50
65659;BME280;60181;53.258;6.932;2022-12-07T08:31:23;101596.33;;;13.82;66.50
65659;BME280;60181;53.258;6.932;2022-12-07T08:35:51;101597.24;;;13.82;66.48
65659;BME280;60181;53.258;6.932;2022-12-07T08:40:19;101596.66;;;13.82;66.49
65659;BME280;60181;53.258;6.932;2022-12-07T08:44:47;101597.53;;;13.82;66.49
65659;BME280;60181;53.258;6.932;2022-12-07T08:49:20;101600.86;;;13.82;66.40
65659;BME280;60181;53.258;6.932;2022-12-07T08:53:43;101608.11;;;13.86;66.65
65659;BME280;60181;53.258;6.932;2022-12-07T08:58:11;101615.64;;;13.86;66.74
65659;BME280;60181;53.258;6.932;2022-12-07T09:02:39;101618.85;;;13.87;66.79
65659;BME280;60181;53.258;6.932;2022-12-07T09:07:07;101614.84;;;13.87;66.58
65659;BME280;60181;53.258;6.932;2022-12-07T09:11:35;101609.28;;;13.89;66.44
65659;BME280;60181;53.258;6.932;2022-12-07T09:16:04;101603.80;;;13.94;65.92
65659;BME280;60181;53.258;6.932;2022-12-07T09:20:31;101599.25;;;14.00;65.71
65659;BME280;60181;53.258;6.932;2022-12-07T09:24:59;101597.75;;;14.05;65.75
65659;BME280;60181;53.258;6.932;2022-12-07T09:29:27;101597.13;;;14.10;65.61
65659;BME280;60181;53.258;6.932;2022-12-07T09:33:58;101595.89;;;14.13;65.83
65659;BME280;60181;53.258;6.932;2022-12-07T09:38:23;101596.03;;;14.15;65.94
65659;BME280;60181;53.258;6.932;2022-12-07T09:42:52;101597.25;;;14.17;65.89
65659;BME280;60181;53.258;6.932;2022-12-07T09:47:19;101599.97;;;14.17;66.12
65659;BME280;60181;53.258;6.932;2022-12-07T09:51:47;101603.15;;;14.16;66.19
65659;BME280;60181;53.258;6.932;2022-12-07T09:56:16;101608.09;;;14.16;66.24
65659;BME280;60181;53.258;6.932;2022-12-07T10:00:43;101611.77;;;14.15;66.37
65659;BME280;60181;53.258;6.932;2022-12-07T10:05:16;101614.46;;;14.13;66.38
65659;BME280;60181;53.258;6.932;2022-12-07T10:09:39;101615.50;;;14.12;66.37
65659;BME280;60181;53.258;6.932;2022-12-07T10:14:11;101615.55;;;14.11;66.35
65659;BME280;60181;53.258;6.932;2022-12-07T10:18:39;101616.13;;;14.12;66.27
65659;BME280;60181;53.258;6.932;2022-12-07T10:23:04;101616.91;;;14.12;66.26
65659;BME280;60181;53.258;6.932;2022-12-07T10:27:31;101615.91;;;14.12;66.26
65659;BME280;60181;53.258;6.932;2022-12-07T10:36:33;101613.03;;;14.12;66.29
65659;BME280;60181;53.258;6.932;2022-12-07T10:41:07;101613.11;;;14.13;66.27
65659;BME280;60181;53.258;6.932;2022-12-07T10:45:23;101611.66;;;14.13;66.24
65659;BME280;60181;53.258;6.932;2022-12-07T10:50:02;101608.94;;;14.14;66.13
65659;BME280;60181;53.258;6.932;2022-12-07T10:54:39;101605.52;;;14.14;66.16
65659;BME280;60181;53.258;6.932;2022-12-07T10:58:51;101601.88;;;14.15;66.16
65659;BME280;60181;53.258;6.932;2022-12-07T11:03:27;101596.86;;;14.15;66.17
65659;BME280;60181;53.258;6.932;2022-12-07T11:16:55;101583.65;;;14.17;66.00
65659;BME280;60181;53.258;6.932;2022-12-07T11:21:09;101577.42;;;14.18;66.01
65659;BME280;60181;53.258;6.932;2022-12-07T11:25:38;101571.34;;;14.19;66.07
65659;BME280;60181;53.258;6.932;2022-12-07T11:30:08;101565.01;;;14.19;66.10
65659;BME280;60181;53.258;6.932;2022-12-07T11:43:28;101548.03;;;14.19;65.99
65659;BME280;60181;53.258;6.932;2022-12-07T11:48:02;101541.96;;;14.21;65.83
65659;BME280;60181;53.258;6.932;2022-12-07T11:56:51;101531.30;;;14.22;66.03
65659;BME280;60181;53.258;6.932;2022-12-07T12:01:26;101527.19;;;14.22;66.12
65659;BME280;60181;53.258;6.932;2022-12-07T12:05:47;101524.60;;;14.21;66.22
65659;BME280;60181;53.258;6.932;2022-12-07T12:10:20;101519.80;;;14.20;66.25
65659;BME280;60181;53.258;6.932;2022-12-07T12:14:48;101515.59;;;14.20;66.26
65659;BME280;60181;53.258;6.932;2022-12-07T12:19:16;101512.02;;;14.19;66.24
65659;BME280;60181;53.258;6.932;2022-12-07T12:23:56;101508.56;;;14.19;66.29
65659;BME280;60181;53.258;6.932;2022-12-07T12:28:10;101504.21;;;14.19;66.25
65659;BME280;60181;53.258;6.932;2022-12-07T12:32:38;101499.91;;;14.19;66.24
65659;BME280;60181;53.258;6.932;2022-12-07T12:37:03;101496.04;;;14.19;66.22
65659;BME280;60181;53.258;6.932;2022-12-07T12:50:28;101485.38;;;14.21;66.15
65659;BME280;60181;53.258;6.932;2022-12-07T12:59:26;101474.97;;;14.20;66.23
65659;BME280;60181;53.258;6.932;2022-12-07T13:03:51;101468.80;;;14.20;66.23
65659;BME280;60181;53.258;6.932;2022-12-07T13:08:21;101462.78;;;14.20;66.25
65659;BME280;60181;53.258;6.932;2022-12-07T13:12:59;101456.27;;;14.20;66.15
65659;BME280;60181;53.258;6.932;2022-12-07T13:21:43;101447.96;;;14.20;66.27
65659;BME280;60181;53.258;6.932;2022-12-07T13:26:35;101444.33;;;14.20;66.34
65659;BME280;60181;53.258;6.932;2022-12-07T13:30:43;101441.66;;;14.19;66.37
65659;BME280;60181;53.258;6.932;2022-12-07T13:39:35;101438.67;;;14.18;66.50
65659;BME280;60181;53.258;6.932;2022-12-07T13:44:07;101440.59;;;14.16;66.59
65659;BME280;60181;53.258;6.932;2022-12-07T13:48:32;101446.66;;;14.15;66.66
65659;BME280;60181;53.258;6.932;2022-12-07T13:52:59;101449.77;;;14.13;66.64
65659;BME280;60181;53.258;6.932;2022-12-07T13:57:28;101446.75;;;14.12;66.60
65659;BME280;60181;53.258;6.932;2022-12-07T14:01:55;101445.68;;;14.11;66.79
65659;BME280;60181;53.258;6.932;2022-12-07T14:06:24;101445.71;;;14.12;66.65
65659;BME280;60181;53.258;6.932;2022-12-07T14:10:54;101444.80;;;14.12;66.74
65659;BME280;60181;53.258;6.932;2022-12-07T14:15:20;101443.08;;;14.12;66.80
65659;BME280;60181;53.258;6.932;2022-12-07T14:19:51;101439.50;;;14.12;66.78
65659;BME280;60181;53.258;6.932;2022-12-07T14:24:16;101435.88;;;14.11;66.80
65659;BME280;60181;53.258;6.932;2022-12-07T14:28:43;101431.56;;;14.10;66.83
65659;BME280;60181;53.258;6.932;2022-12-07T14:33:11;101428.41;;;14.10;66.78
65659;BME280;60181;53.258;6.932;2022-12-07T14:37:40;101425.03;;;14.09;66.80
65659;BME280;60181;53.258;6.932;2022-12-07T14:42:07;101421.88;;;14.08;66.79
65659;BME280;60181;53.258;6.932;2022-12-07T14:46:35;101417.89;;;14.07;66.76
65659;BME280;60181;53.258;6.932;2022-12-07T14:51:03;101415.26;;;14.07;66.81
65659;BME280;60181;53.258;6.932;2022-12-07T14:55:31;101412.77;;;14.06;66.80
65659;BME280;60181;53.258;6.932;2022-12-07T14:59:59;101411.78;;;14.06;66.78
65659;BME280;60181;53.258;6.932;2022-12-07T15:04:27;101410.19;;;14.05;66.79
65659;BME280;60181;53.258;6.932;2022-12-07T15:08:55;101407.39;;;14.04;66.80
65659;BME280;60181;53.258;6.932;2022-12-07T15:13:23;101404.64;;;14.04;66.84
65659;BME280;60181;53.258;6.932;2022-12-07T15:17:51;101404.15;;;14.03;66.86
65659;BME280;60181;53.258;6.932;2022-12-07T15:22:19;101407.74;;;14.03;66.86
65659;BME280;60181;53.258;6.932;2022-12-07T15:26:47;101411.53;;;14.02;66.89
65659;BME280;60181;53.258;6.932;2022-12-07T15:31:15;101413.89;;;14.01;66.96
65659;BME280;60181;53.258;6.932;2022-12-07T15:35:43;101413.08;;;14.01;66.96
65659;BME280;60181;53.258;6.932;2022-12-07T15:40:11;101409.75;;;14.00;66.98
65659;BME280;60181;53.258;6.932;2022-12-07T15:44:39;101403.58;;;14.00;66.93
65659;BME280;60181;53.258;6.932;2022-12-07T15:49:11;101397.61;;;14.00;66.92
65659;BME280;60181;53.258;6.932;2022-12-07T15:53:35;101392.85;;;13.99;66.89
65659;BME280;60181;53.258;6.932;2022-12-07T15:58:03;101389.03;;;13.98;66.87
65659;BME280;60181;53.258;6.932;2022-12-07T16:02:31;101386.64;;;13.98;66.88
65659;BME280;60181;53.258;6.932;2022-12-07T16:06:59;101384.50;;;13.98;66.84
65659;BME280;60181;53.258;6.932;2022-12-07T16:11:27;101385.24;;;13.97;66.83
65659;BME280;60181;53.258;6.932;2022-12-07T16:15:55;101387.30;;;13.98;66.76
65659;BME280;60181;53.258;6.932;2022-12-07T16:20:23;101389.29;;;13.99;66.64
65659;BME280;60181;53.258;6.932;2022-12-07T16:24:51;101388.31;;;13.99;66.53
65659;BME280;60181;53.258;6.932;2022-12-07T16:29:19;101387.10;;;14.00;66.48
65659;BME280;60181;53.258;6.932;2022-12-07T16:33:47;101384.63;;;14.01;66.46
65659;BME280;60181;53.258;6.932;2022-12-07T16:38:15;101380.20;;;14.01;66.48
65659;BME280;60181;53.258;6.932;2022-12-07T16:42:43;101375.84;;;14.01;66.48
65659;BME280;60181;53.258;6.932;2022-12-07T16:47:11;101373.46;;;14.02;66.49
65659;BME280;60181;53.258;6.932;2022-12-07T16:51:39;101369.61;;;14.02;66.46
65659;BME280;60181;53.258;6.932;2022-12-07T16:56:11;101365.57;;;14.02;66.44
65659;BME280;60181;53.258;6.932;2022-12-07T17:00:35;101361.13;;;14.02;66.43
65659;BME280;60181;53.258;6.932;2022-12-07T17:05:03;101355.03;;;14.02;66.43
65659;BME280;60181;53.258;6.932;2022-12-07T17:09:30;101348.69;;;14.02;66.43
65659;BME280;60181;53.258;6.932;2022-12-07T17:13:59;101341.69;;;14.02;66.42
65659;BME280;60181;53.258;6.932;2022-12-07T17:18:27;101336.50;;;14.02;66.39
65659;BME280;60181;53.258;6.932;2022-12-07T17:22:54;101332.05;;;14.02;66.36
65659;BME280;60181;53.258;6.932;2022-12-07T17:27:22;101327.76;;;14.02;66.39
65659;BME280;60181;53.258;6.932;2022-12-07T17:31:50;101321.56;;;14.02;66.38
65659;BME280;60181;53.258;6.932;2022-12-07T17:36:20;101314.98;;;14.01;66.39
65659;BME280;60181;53.258;6.932;2022-12-07T17:40:46;101309.70;;;14.01;66.38
65659;BME280;60181;53.258;6.932;2022-12-07T17:45:14;101303.94;;;14.01;66.34
65659;BME280;60181;53.258;6.932;2022-12-07T17:49:42;101299.81;;;14.01;66.34
65659;BME280;60181;53.258;6.932;2022-12-07T17:54:11;101295.70;;;14.01;66.35
65659;BME280;60181;53.258;6.932;2022-12-07T17:58:38;101290.01;;;14.01;66.35
65659;BME280;60181;53.258;6.932;2022-12-07T18:03:06;101285.66;;;14.01;66.35
65659;BME280;60181;53.258;6.932;2022-12-07T18:07:34;101280.55;;;14.01;66.34
65659;BME280;60181;53.258;6.932;2022-12-07T18:12:03;101277.17;;;14.01;66.36
65659;BME280;60181;53.258;6.932;2022-12-07T18:16:31;101272.80;;;14.02;66.35
65659;BME280;60181;53.258;6.932;2022-12-07T18:21:01;101268.63;;;14.02;66.35
65659;BME280;60181;53.258;6.932;2022-12-07T18:25:26;101263.44;;;14.02;66.36
65659;BME280;60181;53.258;6.932;2022-12-07T18:29:54;101257.34;;;14.02;66.37
65659;BME280;60181;53.258;6.932;2022-12-07T18:34:22;101251.09;;;14.02;66.37
65659;BME280;60181;53.258;6.932;2022-12-07T18:38:50;101244.00;;;14.02;66.38
65659;BME280;60181;53.258;6.932;2022-12-07T18:43:18;101238.89;;;14.03;66.37
65659;BME280;60181;53.258;6.932;2022-12-07T18:47:46;101233.04;;;14.03;66.38
65659;BME280;60181;53.258;6.932;2022-12-07T18:52:14;101229.08;;;14.03;66.40
65659;BME280;60181;53.258;6.932;2022-12-07T18:56:42;101225.55;;;14.03;66.38
65659;BME280;60181;53.258;6.932;2022-12-07T19:01:10;101222.34;;;14.02;66.40
65659;BME280;60181;53.258;6.932;2022-12-07T19:05:38;101219.53;;;14.02;66.38
65659;BME280;60181;53.258;6.932;2022-12-07T19:10:07;101216.91;;;14.02;66.37
65659;BME280;60181;53.258;6.932;2022-12-07T19:14:35;101214.43;;;14.02;66.40
65659;BME280;60181;53.258;6.932;2022-12-07T19:19:02;101211.55;;;14.02;66.35
65659;BME280;60181;53.258;6.932;2022-12-07T19:23:30;101208.25;;;14.02;66.33
65659;BME280;60181;53.258;6.932;2022-12-07T19:27:58;101204.47;;;14.02;66.36
65659;BME280;60181;53.258;6.932;2022-12-07T19:32:26;101201.03;;;14.04;66.40
65659;BME280;60181;53.258;6.932;2022-12-07T19:36:54;101197.13;;;14.05;66.40
65659;BME280;60181;53.258;6.932;2022-12-07T19:41:22;101192.58;;;14.05;66.55
65659;BME280;60181;53.258;6.932;2022-12-07T19:45:50;101188.96;;;14.06;66.51
65659;BME280;60181;53.258;6.932;2022-12-07T19:50:18;101184.76;;;14.06;66.54
65659;BME280;60181;53.258;6.932;2022-12-07T19:54:46;101179.65;;;14.06;66.54
65659;BME280;60181;53.258;6.932;2022-12-07T19:59:15;101176.51;;;14.06;66.53
65659;BME280;60181;53.258;6.932;2022-12-07T20:03:42;101172.07;;;14.06;66.51
65659;BME280;60181;53.258;6.932;2022-12-07T20:08:10;101167.90;;;14.07;66.50
65659;BME280;60181;53.258;6.932;2022-12-07T20:12:38;101163.45;;;14.07;66.51
65659;BME280;60181;53.258;6.932;2022-12-07T20:17:06;101157.58;;;14.06;66.48
65659;BME280;60181;53.258;6.932;2022-12-07T20:21:35;101151.89;;;14.06;66.64
65659;BME280;60181;53.258;6.932;2022-12-07T20:26:06;101147.31;;;14.07;66.56
65659;BME280;60181;53.258;6.932;2022-12-07T20:30:30;101143.52;;;14.07;66.47
65659;BME280;60181;53.258;6.932;2022-12-07T20:34:58;101138.40;;;14.07;66.48
65659;BME280;60181;53.258;6.932;2022-12-07T20:39:26;101134.78;;;14.07;66.47
65659;BME280;60181;53.258;6.932;2022-12-07T20:43:55;101133.47;;;14.07;66.46
65659;BME280;60181;53.258;6.932;2022-12-07T20:48:22;101131.24;;;14.07;66.45
65659;BME280;60181;53.258;6.932;2022-12-07T20:52:50;101129.43;;;14.07;66.45
65659;BME280;60181;53.258;6.932;2022-12-07T20:57:18;101126.54;;;14.07;66.41
65659;BME280;60181;53.258;6.932;2022-12-07T21:01:46;101123.26;;;14.07;66.41
65659;BME280;60181;53.258;6.932;2022-12-07T21:06:15;101121.34;;;14.06;66.42
65659;BME280;60181;53.258;6.932;2022-12-07T21:10:42;101119.44;;;14.06;66.39
65659;BME280;60181;53.258;6.932;2022-12-07T21:15:10;101117.22;;;14.06;66.38
65659;BME280;60181;53.258;6.932;2022-12-07T21:19:39;101117.05;;;14.06;66.39
65659;BME280;60181;53.258;6.932;2022-12-07T21:24:06;101116.06;;;14.06;66.38
65659;BME280;60181;53.258;6.932;2022-12-07T21:28:34;101112.52;;;14.06;66.37
65659;BME280;60181;53.258;6.932;2022-12-07T21:33:02;101108.90;;;14.06;66.38
65659;BME280;60181;53.258;6.932;2022-12-07T21:37:30;101104.94;;;14.06;66.37
65659;BME280;60181;53.258;6.932;2022-12-07T21:41:58;101098.85;;;14.06;66.37
65659;BME280;60181;53.258;6.932;2022-12-07T21:46:27;101093.16;;;14.06;66.37
65659;BME280;60181;53.258;6.932;2022-12-07T21:50:54;101087.06;;;14.06;66.33
65659;BME280;60181;53.258;6.932;2022-12-07T21:55:22;101080.42;;;14.07;66.35
65659;BME280;60181;53.258;6.932;2022-12-07T21:59:50;101074.66;;;14.07;66.36
65659;BME280;60181;53.258;6.932;2022-12-07T22:04:22;101069.44;;;14.06;66.35
65659;BME280;60181;53.258;6.932;2022-12-07T22:08:46;101065.81;;;14.06;66.33
65659;BME280;60181;53.258;6.932;2022-12-07T22:13:14;101060.80;;;14.06;66.34
65659;BME280;60181;53.258;6.932;2022-12-07T22:17:42;101055.03;;;14.06;66.33
65659;BME280;60181;53.258;6.932;2022-12-07T22:22:13;101049.59;;;14.06;66.30
65659;BME280;60181;53.258;6.932;2022-12-07T22:26:38;101042.92;;;14.06;66.30
65659;BME280;60181;53.258;6.932;2022-12-07T22:31:07;101036.58;;;14.05;66.28
65659;BME280;60181;53.258;6.932;2022-12-07T22:35:34;101029.83;;;14.05;66.28
65659;BME280;60181;53.258;6.932;2022-12-07T22:40:02;101024.24;;;14.05;66.24
65659;BME280;60181;53.258;6.932;2022-12-07T22:44:30;101018.22;;;14.05;66.28
65659;BME280;60181;53.258;6.932;2022-12-07T22:48:58;101013.99;;;14.05;66.24
65659;BME280;60181;53.258;6.932;2022-12-07T22:53:26;101010.14;;;14.06;66.32
65659;BME280;60181;53.258;6.932;2022-12-07T22:57:54;101003.46;;;14.10;66.16
65659;BME280;60181;53.258;6.932;2022-12-07T23:02:22;100996.95;;;14.15;66.30
65659;BME280;60181;53.258;6.932;2022-12-07T23:06:50;100989.01;;;14.18;66.44
65659;BME280;60181;53.258;6.932;2022-12-07T23:11:19;100982.81;;;14.21;66.60
65659;BME280;60181;53.258;6.932;2022-12-07T23:15:46;100977.98;;;14.23;66.61
65659;BME280;60181;53.258;6.932;2022-12-07T23:20:14;100975.60;;;14.25;66.67
65659;BME280;60181;53.258;6.932;2022-12-07T23:24:42;100977.29;;;14.27;66.61
65659;BME280;60181;53.258;6.932;2022-12-07T23:29:10;100977.56;;;14.28;66.57
65659;BME280;60181;53.258;6.932;2022-12-07T23:33:38;100977.98;;;14.29;66.55
65659;BME280;60181;53.258;6.932;2022-12-07T23:38:06;100975.86;;;14.30;66.64
65659;BME280;60181;53.258;6.932;2022-12-07T23:42:34;100973.80;;;14.31;66.67
65659;BME280;60181;53.258;6.932;2022-12-07T23:47:02;100973.32;;;14.32;66.69
65659;BME280;60181;53.258;6.932;2022-12-07T23:51:30;100972.69;;;14.32;66.59
65659;BME280;60181;53.258;6.932;2022-12-07T23:55:58;100972.60;;;14.32;66.53
